sensor_id;sensor_type;location;lat;lon;timestamp;P1;durP1;ratioP1;P2;durP2;ratioP2
9007;SDS011;62813;51.424;6.762;2022-12-29T00:00:04;2.60;;;1.10;;
9007;SDS011;62813;51.424;6.762;2022-12-29T00:02:34;0.60;;;0.60;;
9007;SDS011;62813;51.424;6.762;2022-12-29T00:05:01;0.80;;;0.60;;
9007;SDS011;62813;51.424;6.762;2022-12-29T00:07:28;0.80;;;0.73;;
9007;SDS011;62813;51.424;6.762;2022-12-29T00:09:55;0.80;;;0.67;;
9007;SDS011;62813;51.424;6.762;2022-12-29T00:12:21;1.17;;;0.80;;
9007;SDS011;62813;51.424;6.762;2022-12-29T00:14:48;2.57;;;0.80;;
9007;SDS011;62813;51.424;6.762;2022-12-29T00:17:33;3.73;;;0.73;;
9007;SDS011;62813;51.424;6.762;2022-12-29T00:20:00;3.47;;;0.80;;
9007;SDS011;62813;51.424;6.762;2022-12-29T00:22:45;1.20;;;0.80;;
9007;SDS011;62813;51.424;6.762;2022-12-29T00:25:30;1.00;;;0.70;;
9007;SDS011;62813;51.424;6.762;2022-12-29T00:28:25;1.77;;;0.70;;
9007;SDS011;62813;51.424;6.762;2022-12-29T00:31:11;0.93;;;0.60;;
9007;SDS011;62813;51.424;6.762;2022-12-29T00:33:57;1.53;;;0.80;;
9007;SDS011;62813;51.424;6.762;2022-12-29T00:36:42;1.10;;;0.80;;
9007;SDS011;62813;51.424;6.762;2022-12-29T00:39:12;3.03;;;0.70;;
9007;SDS011;62813;51.424;6.762;2022-12-29T00:42:07;0.90;;;0.60;;
9007;SDS011;62813;51.424;6.762;2022-12-29T00:45:06;5.00;;;0.60;;
9007;SDS011;62813;51.424;6.762;2022-12-29T00:47:33;3.80;;;0.73;;
9007;SDS011;62813;51.424;6.762;2022-12-29T00:49:59;0.70;;;0.70;;
9007;SDS011;62813;51.424;6.762;2022-12-29T00:52:26;0.70;;;0.70;;
9007;SDS011;62813;51.424;6.762;2022-12-29T00:54:52;0.60;;;0.60;;
9007;SDS011;62813;51.424;6.762;2022-12-29T00:57:19;0.87;;;0.60;;
9007;SDS011;62813;51.424;6.762;2022-12-29T00:59:46;1.73;;;0.70;;
9007;SDS011;62813;51.424;6.762;2022-12-29T01:02:12;3.00;;;0.60;;
9007;SDS011;62813;51.424;6.762;2022-12-29T01:04:39;2.40;;;0.60;;
9007;SDS011;62813;51.424;6.762;2022-12-29T01:07:05;0.50;;;0.50;;
9007;SDS011;62813;51.424;6.762;2022-12-29T01:09:33;1.83;;;0.70;;
9007;SDS011;62813;51.424;6.762;2022-12-29T01:12:18;2.67;;;0.70;;
9007;SDS011;62813;51.424;6.762;2022-12-29T01:15:07;1.17;;;0.77;;
9007;SDS011;62813;51.424;6.762;2022-12-29T01:17:38;2.70;;;1.13;;
9007;SDS011;62813;51.424;6.762;2022-12-29T01:20:05;3.80;;;2.03;;
9007;SDS011;62813;51.424;6.762;2022-12-29T01:22:32;1.23;;;1.10;;
9007;SDS011;62813;51.424;6.762;2022-12-29T01:24:59;2.13;;;1.23;;
9007;SDS011;62813;51.424;6.762;2022-12-29T01:27:25;2.87;;;1.60;;
9007;SDS011;62813;51.424;6.762;2022-12-29T01:29:52;2.57;;;1.10;;
9007;SDS011;62813;51.424;6.762;2022-12-29T01:32:18;2.03;;;1.10;;
9007;SDS011;62813;51.424;6.762;2022-12-29T01:34:45;1.80;;;1.20;;
9007;SDS011;62813;51.424;6.762;2022-12-29T01:37:12;0.70;;;0.60;;
9007;SDS011;62813;51.424;6.762;2022-12-29T01:39:41;0.50;;;0.50;;
9007;SDS011;62813;51.424;6.762;2022-12-29T01:42:12;1.37;;;0.57;;
9007;SDS011;62813;51.424;6.762;2022-12-29T01:45:02;0.60;;;0.47;;
9007;SDS011;62813;51.424;6.762;2022-12-29T01:47:36;0.40;;;0.40;;
9007;SDS011;62813;51.424;6.762;2022-12-29T01:50:13;2.10;;;0.67;;
9007;SDS011;62813;51.424;6.762;2022-12-29T01:52:48;0.77;;;0.60;;
9007;SDS011;62813;51.424;6.762;2022-12-29T01:55:20;3.23;;;0.80;;
9007;SDS011;62813;51.424;6.762;2022-12-29T01:57:49;2.03;;;0.83;;
9007;SDS011;62813;51.424;6.762;2022-12-29T02:00:19;0.90;;;0.80;;
9007;SDS011;62813;51.424;6.762;2022-12-29T02:02:46;1.10;;;0.73;;
9007;SDS011;62813;51.424;6.762;2022-12-29T02:05:27;2.00;;;0.63;;
9007;SDS011;62813;51.424;6.762;2022-12-29T02:07:58;0.97;;;0.77;;
9007;SDS011;62813;51.424;6.762;2022-12-29T02:10:27;2.00;;;1.17;;
9007;SDS011;62813;51.424;6.762;2022-12-29T02:12:58;2.27;;;1.10;;
9007;SDS011;62813;51.424;6.762;2022-12-29T02:21:01;5.83;;;2.33;;
9007;SDS011;62813;51.424;6.762;2022-12-29T02:26:29;4.07;;;2.47;;
9007;SDS011;62813;51.424;6.762;2022-12-29T02:32:15;6.33;;;3.20;;
9007;SDS011;62813;51.424;6.762;2022-12-29T02:41:03;2.00;;;1.33;;
9007;SDS011;62813;51.424;6.762;2022-12-29T02:43:37;6.60;;;2.10;;
9007;SDS011;62813;51.424;6.762;2022-12-29T02:49:09;3.73;;;1.47;;
9007;SDS011;62813;51.424;6.762;2022-12-29T02:51:46;3.23;;;1.53;;
9007;SDS011;62813;51.424;6.762;2022-12-29T02:54:23;3.63;;;1.80;;
9007;SDS011;62813;51.424;6.762;2022-12-29T02:57:31;5.60;;;1.97;;
9007;SDS011;62813;51.424;6.762;2022-12-29T03:00:03;4.57;;;2.10;;
9007;SDS011;62813;51.424;6.762;2022-12-29T03:13:56;6.50;;;2.30;;
9007;SDS011;62813;51.424;6.762;2022-12-29T03:19:46;6.83;;;3.20;;
9007;SDS011;62813;51.424;6.762;2022-12-29T03:22:18;7.13;;;3.30;;
9007;SDS011;62813;51.424;6.762;2022-12-29T03:25:03;8.87;;;3.33;;
9007;SDS011;62813;51.424;6.762;2022-12-29T03:27:56;5.20;;;2.67;;
9007;SDS011;62813;51.424;6.762;2022-12-29T03:30:28;6.07;;;2.60;;
9007;SDS011;62813;51.424;6.762;2022-12-29T03:33:01;5.10;;;3.13;;
9007;SDS011;62813;51.424;6.762;2022-12-29T03:35:31;8.40;;;3.13;;
9007;SDS011;62813;51.424;6.762;2022-12-29T03:40:52;6.97;;;3.10;;
9007;SDS011;62813;51.424;6.762;2022-12-29T03:43:23;5.90;;;2.40;;
9007;SDS011;62813;51.424;6.762;2022-12-29T03:45:50;2.40;;;1.50;;
9007;SDS011;62813;51.424;6.762;2022-12-29T03:48:17;2.87;;;1.40;;
9007;SDS011;62813;51.424;6.762;2022-12-29T03:50:43;4.27;;;2.03;;
9007;SDS011;62813;51.424;6.762;2022-12-29T03:53:10;5.87;;;2.80;;
9007;SDS011;62813;51.424;6.762;2022-12-29T03:55:36;5.70;;;1.93;;
9007;SDS011;62813;51.424;6.762;2022-12-29T03:58:05;2.00;;;1.43;;
9007;SDS011;62813;51.424;6.762;2022-12-29T04:00:32;4.70;;;1.40;;
9007;SDS011;62813;51.424;6.762;2022-12-29T04:02:59;1.23;;;0.83;;
9007;SDS011;62813;51.424;6.762;2022-12-29T04:05:26;2.93;;;1.57;;
9007;SDS011;62813;51.424;6.762;2022-12-29T04:07:52;3.63;;;1.13;;
9007;SDS011;62813;51.424;6.762;2022-12-29T04:10:19;1.57;;;1.00;;
9007;SDS011;62813;51.424;6.762;2022-12-29T04:12:45;1.67;;;0.90;;
9007;SDS011;62813;51.424;6.762;2022-12-29T04:15:12;0.70;;;0.60;;
9007;SDS011;62813;51.424;6.762;2022-12-29T04:17:39;1.60;;;0.77;;
9007;SDS011;62813;51.424;6.762;2022-12-29T04:20:06;1.47;;;1.00;;
9007;SDS011;62813;51.424;6.762;2022-12-29T04:23:05;2.03;;;0.70;;
9007;SDS011;62813;51.424;6.762;2022-12-29T04:25:32;1.00;;;0.70;;
9007;SDS011;62813;51.424;6.762;2022-12-29T04:27:59;1.03;;;0.73;;
9007;SDS011;62813;51.424;6.762;2022-12-29T04:30:26;1.60;;;1.13;;
9007;SDS011;62813;51.424;6.762;2022-12-29T04:32:53;3.43;;;1.07;;
9007;SDS011;62813;51.424;6.762;2022-12-29T04:35:20;3.40;;;2.03;;
9007;SDS011;62813;51.424;6.762;2022-12-29T04:37:47;3.43;;;1.50;;
9007;SDS011;62813;51.424;6.762;2022-12-29T04:40:13;6.67;;;1.73;;
9007;SDS011;62813;51.424;6.762;2022-12-29T04:42:40;3.87;;;1.77;;
9007;SDS011;62813;51.424;6.762;2022-12-29T04:45:07;4.87;;;2.20;;
9007;SDS011;62813;51.424;6.762;2022-12-29T04:47:36;4.73;;;2.93;;
9007;SDS011;62813;51.424;6.762;2022-12-29T04:50:03;6.30;;;2.27;;
9007;SDS011;62813;51.424;6.762;2022-12-29T04:52:30;2.33;;;1.40;;
9007;SDS011;62813;51.424;6.762;2022-12-29T04:54:57;2.60;;;1.30;;
9007;SDS011;62813;51.424;6.762;2022-12-29T04:57:23;7.07;;;1.30;;
9007;SDS011;62813;51.424;6.762;2022-12-29T04:59:50;1.50;;;0.80;;
9007;SDS011;62813;51.424;6.762;2022-12-29T05:02:17;2.00;;;0.70;;
9007;SDS011;62813;51.424;6.762;2022-12-29T05:04:44;0.90;;;0.50;;
9007;SDS011;62813;51.424;6.762;2022-12-29T05:07:11;1.83;;;0.60;;
9007;SDS011;62813;51.424;6.762;2022-12-29T05:09:37;1.60;;;0.67;;
9007;SDS011;62813;51.424;6.762;2022-12-29T05:12:04;3.43;;;0.80;;
9007;SDS011;62813;51.424;6.762;2022-12-29T05:14:32;2.20;;;0.90;;
9007;SDS011;62813;51.424;6.762;2022-12-29T05:16:59;1.70;;;0.77;;
9007;SDS011;62813;51.424;6.762;2022-12-29T05:19:25;1.40;;;0.70;;
9007;SDS011;62813;51.424;6.762;2022-12-29T05:21:52;1.80;;;0.70;;
9007;SDS011;62813;51.424;6.762;2022-12-29T05:24:19;1.17;;;0.70;;
9007;SDS011;62813;51.424;6.762;2022-12-29T05:26:45;1.53;;;0.70;;
9007;SDS011;62813;51.424;6.762;2022-12-29T05:29:14;1.80;;;0.70;;
9007;SDS011;62813;51.424;6.762;2022-12-29T05:31:44;1.27;;;0.60;;
9007;SDS011;62813;51.424;6.762;2022-12-29T05:34:11;4.43;;;0.97;;
9007;SDS011;62813;51.424;6.762;2022-12-29T05:36:38;6.73;;;0.80;;
9007;SDS011;62813;51.424;6.762;2022-12-29T05:39:05;2.33;;;0.90;;
9007;SDS011;62813;51.424;6.762;2022-12-29T05:41:34;3.23;;;0.93;;
9007;SDS011;62813;51.424;6.762;2022-12-29T05:44:01;2.83;;;0.93;;
9007;SDS011;62813;51.424;6.762;2022-12-29T05:46:28;5.70;;;0.90;;
9007;SDS011;62813;51.424;6.762;2022-12-29T05:48:55;3.20;;;0.90;;
9007;SDS011;62813;51.424;6.762;2022-12-29T05:51:21;2.50;;;0.80;;
9007;SDS011;62813;51.424;6.762;2022-12-29T05:53:48;1.73;;;0.50;;
9007;SDS011;62813;51.424;6.762;2022-12-29T05:56:15;3.63;;;0.90;;
9007;SDS011;62813;51.424;6.762;2022-12-29T05:58:42;1.97;;;0.80;;
9007;SDS011;62813;51.424;6.762;2022-12-29T06:01:09;2.73;;;0.80;;
9007;SDS011;62813;51.424;6.762;2022-12-29T06:03:35;1.20;;;0.67;;
9007;SDS011;62813;51.424;6.762;2022-12-29T06:06:03;2.90;;;0.73;;
9007;SDS011;62813;51.424;6.762;2022-12-29T06:08:30;2.83;;;0.80;;
9007;SDS011;62813;51.424;6.762;2022-12-29T06:10:56;2.33;;;0.70;;
9007;SDS011;62813;51.424;6.762;2022-12-29T06:13:23;2.20;;;0.73;;
9007;SDS011;62813;51.424;6.762;2022-12-29T06:15:50;1.87;;;0.70;;
9007;SDS011;62813;51.424;6.762;2022-12-29T06:18:17;1.97;;;0.70;;
9007;SDS011;62813;51.424;6.762;2022-12-29T06:20:45;5.10;;;1.00;;
9007;SDS011;62813;51.424;6.762;2022-12-29T06:23:12;2.27;;;0.70;;
9007;SDS011;62813;51.424;6.762;2022-12-29T06:25:39;1.37;;;0.73;;
9007;SDS011;62813;51.424;6.762;2022-12-29T06:28:06;4.80;;;0.90;;
9007;SDS011;62813;51.424;6.762;2022-12-29T06:30:35;1.00;;;0.60;;
9007;SDS011;62813;51.424;6.762;2022-12-29T06:33:02;1.50;;;0.83;;
9007;SDS011;62813;51.424;6.762;2022-12-29T06:35:28;2.70;;;0.80;;
9007;SDS011;62813;51.424;6.762;2022-12-29T06:37:55;2.10;;;0.97;;
9007;SDS011;62813;51.424;6.762;2022-12-29T06:40:22;2.03;;;0.80;;
9007;SDS011;62813;51.424;6.762;2022-12-29T06:42:51;4.00;;;0.97;;
9007;SDS011;62813;51.424;6.762;2022-12-29T06:45:17;4.40;;;0.90;;
9007;SDS011;62813;51.424;6.762;2022-12-29T06:47:44;1.77;;;0.73;;
9007;SDS011;62813;51.424;6.762;2022-12-29T06:50:10;4.83;;;1.23;;
9007;SDS011;62813;51.424;6.762;2022-12-29T06:52:37;3.93;;;0.80;;
9007;SDS011;62813;51.424;6.762;2022-12-29T06:55:04;2.60;;;1.00;;
9007;SDS011;62813;51.424;6.762;2022-12-29T06:57:33;2.67;;;0.90;;
9007;SDS011;62813;51.424;6.762;2022-12-29T06:59:59;4.43;;;1.03;;
9007;SDS011;62813;51.424;6.762;2022-12-29T07:02:26;2.30;;;0.80;;
9007;SDS011;62813;51.424;6.762;2022-12-29T07:04:53;3.03;;;0.87;;
9007;SDS011;62813;51.424;6.762;2022-12-29T07:07:20;3.87;;;1.10;;
9007;SDS011;62813;51.424;6.762;2022-12-29T07:09:46;4.03;;;1.13;;
9007;SDS011;62813;51.424;6.762;2022-12-29T07:12:13;4.43;;;0.90;;
9007;SDS011;62813;51.424;6.762;2022-12-29T07:14:40;3.67;;;1.03;;
9007;SDS011;62813;51.424;6.762;2022-12-29T07:17:08;4.10;;;1.30;;
9007;SDS011;62813;51.424;6.762;2022-12-29T07:19:35;3.80;;;1.00;;
9007;SDS011;62813;51.424;6.762;2022-12-29T07:22:02;4.27;;;1.13;;
9007;SDS011;62813;51.424;6.762;2022-12-29T07:24:28;3.00;;;0.80;;
9007;SDS011;62813;51.424;6.762;2022-12-29T07:26:56;4.00;;;1.10;;
9007;SDS011;62813;51.424;6.762;2022-12-29T07:29:22;4.50;;;1.53;;
9007;SDS011;62813;51.424;6.762;2022-12-29T07:31:49;4.00;;;1.13;;
9007;SDS011;62813;51.424;6.762;2022-12-29T07:34:16;2.27;;;0.90;;
9007;SDS011;62813;51.424;6.762;2022-12-29T07:36:45;3.87;;;1.10;;
9007;SDS011;62813;51.424;6.762;2022-12-29T07:39:12;2.63;;;0.90;;
9007;SDS011;62813;51.424;6.762;2022-12-29T07:41:39;6.70;;;1.10;;
9007;SDS011;62813;51.424;6.762;2022-12-29T07:44:08;3.80;;;1.10;;
9007;SDS011;62813;51.424;6.762;2022-12-29T07:46:34;4.73;;;1.10;;
9007;SDS011;62813;51.424;6.762;2022-12-29T07:49:21;2.30;;;1.20;;
9007;SDS011;62813;51.424;6.762;2022-12-29T07:51:48;5.80;;;1.17;;
9007;SDS011;62813;51.424;6.762;2022-12-29T07:54:15;5.57;;;0.93;;
9007;SDS011;62813;51.424;6.762;2022-12-29T07:56:44;6.57;;;1.60;;
9007;SDS011;62813;51.424;6.762;2022-12-29T07:59:11;6.93;;;1.30;;
9007;SDS011;62813;51.424;6.762;2022-12-29T08:01:38;3.73;;;0.97;;
9007;SDS011;62813;51.424;6.762;2022-12-29T08:04:05;2.77;;;1.00;;
9007;SDS011;62813;51.424;6.762;2022-12-29T08:06:34;4.30;;;1.13;;
9007;SDS011;62813;51.424;6.762;2022-12-29T08:09:01;4.53;;;1.30;;
9007;SDS011;62813;51.424;6.762;2022-12-29T08:11:40;4.20;;;1.20;;
9007;SDS011;62813;51.424;6.762;2022-12-29T08:14:06;4.90;;;1.30;;
9007;SDS011;62813;51.424;6.762;2022-12-29T08:16:33;4.30;;;1.27;;
9007;SDS011;62813;51.424;6.762;2022-12-29T08:19:00;4.30;;;1.20;;
9007;SDS011;62813;51.424;6.762;2022-12-29T08:21:27;4.03;;;1.30;;
9007;SDS011;62813;51.424;6.762;2022-12-29T08:23:54;5.40;;;1.23;;
9007;SDS011;62813;51.424;6.762;2022-12-29T08:26:22;3.60;;;1.20;;
9007;SDS011;62813;51.424;6.762;2022-12-29T08:28:49;7.03;;;1.30;;
9007;SDS011;62813;51.424;6.762;2022-12-29T08:31:18;5.67;;;1.40;;
9007;SDS011;62813;51.424;6.762;2022-12-29T08:33:45;6.17;;;1.33;;
9007;SDS011;62813;51.424;6.762;2022-12-29T08:36:11;4.60;;;1.50;;
9007;SDS011;62813;51.424;6.762;2022-12-29T08:38:39;6.50;;;1.60;;
9007;SDS011;62813;51.424;6.762;2022-12-29T08:41:05;9.43;;;1.50;;
9007;SDS011;62813;51.424;6.762;2022-12-29T08:43:32;5.97;;;2.03;;
9007;SDS011;62813;51.424;6.762;2022-12-29T08:45:58;5.47;;;1.60;;
9007;SDS011;62813;51.424;6.762;2022-12-29T08:48:26;3.83;;;1.50;;
9007;SDS011;62813;51.424;6.762;2022-12-29T08:50:52;3.30;;;1.47;;
9007;SDS011;62813;51.424;6.762;2022-12-29T08:53:19;13.23;;;3.17;;
9007;SDS011;62813;51.424;6.762;2022-12-29T08:55:47;5.53;;;1.70;;
9007;SDS011;62813;51.424;6.762;2022-12-29T08:58:29;4.07;;;1.40;;
9007;SDS011;62813;51.424;6.762;2022-12-29T09:00:56;8.57;;;1.60;;
9007;SDS011;62813;51.424;6.762;2022-12-29T09:03:23;6.03;;;1.30;;
9007;SDS011;62813;51.424;6.762;2022-12-29T09:06:11;6.70;;;1.47;;
9007;SDS011;62813;51.424;6.762;2022-12-29T09:08:37;5.90;;;1.40;;
9007;SDS011;62813;51.424;6.762;2022-12-29T09:13:34;5.87;;;1.70;;
9007;SDS011;62813;51.424;6.762;2022-12-29T09:16:01;9.27;;;2.10;;
9007;SDS011;62813;51.424;6.762;2022-12-29T09:18:28;9.33;;;1.63;;
9007;SDS011;62813;51.424;6.762;2022-12-29T09:20:59;7.33;;;1.33;;
9007;SDS011;62813;51.424;6.762;2022-12-29T09:23:34;6.43;;;1.50;;
9007;SDS011;62813;51.424;6.762;2022-12-29T09:26:01;5.80;;;1.83;;
9007;SDS011;62813;51.424;6.762;2022-12-29T09:28:29;6.73;;;1.93;;
9007;SDS011;62813;51.424;6.762;2022-12-29T09:30:56;5.53;;;1.73;;
9007;SDS011;62813;51.424;6.762;2022-12-29T09:33:23;4.93;;;1.00;;
9007;SDS011;62813;51.424;6.762;2022-12-29T09:35:54;6.73;;;1.63;;
9007;SDS011;62813;51.424;6.762;2022-12-29T09:38:22;4.27;;;1.47;;
9007;SDS011;62813;51.424;6.762;2022-12-29T09:40:54;4.30;;;1.20;;
9007;SDS011;62813;51.424;6.762;2022-12-29T09:46:27;5.27;;;1.30;;
9007;SDS011;62813;51.424;6.762;2022-12-29T09:51:59;7.63;;;1.90;;
9007;SDS011;62813;51.424;6.762;2022-12-29T09:54:41;7.63;;;1.50;;
9007;SDS011;62813;51.424;6.762;2022-12-29T09:58:14;6.87;;;1.30;;
9007;SDS011;62813;51.424;6.762;2022-12-29T10:01:33;6.40;;;1.73;;
9007;SDS011;62813;51.424;6.762;2022-12-29T10:03:50;7.10;;;1.70;;
9007;SDS011;62813;51.424;6.762;2022-12-29T10:09:31;6.63;;;1.57;;
9007;SDS011;62813;51.424;6.762;2022-12-29T10:15:44;7.17;;;1.70;;
9007;SDS011;62813;51.424;6.762;2022-12-29T10:18:15;3.67;;;1.20;;
9007;SDS011;62813;51.424;6.762;2022-12-29T10:21:22;5.40;;;1.80;;
9007;SDS011;62813;51.424;6.762;2022-12-29T10:24:04;9.83;;;2.00;;
9007;SDS011;62813;51.424;6.762;2022-12-29T10:26:40;6.20;;;1.33;;
9007;SDS011;62813;51.424;6.762;2022-12-29T10:29:24;6.87;;;1.63;;
9007;SDS011;62813;51.424;6.762;2022-12-29T10:32:06;5.47;;;1.53;;
9007;SDS011;62813;51.424;6.762;2022-12-29T10:34:44;3.23;;;1.37;;
9007;SDS011;62813;51.424;6.762;2022-12-29T10:40:12;5.13;;;1.70;;
9007;SDS011;62813;51.424;6.762;2022-12-29T10:42:50;10.30;;;1.63;;
9007;SDS011;62813;51.424;6.762;2022-12-29T10:45:21;6.53;;;1.73;;
9007;SDS011;62813;51.424;6.762;2022-12-29T10:50:57;6.10;;;1.70;;
9007;SDS011;62813;51.424;6.762;2022-12-29T10:53:30;8.53;;;1.60;;
9007;SDS011;62813;51.424;6.762;2022-12-29T10:56:53;5.23;;;1.40;;
9007;SDS011;62813;51.424;6.762;2022-12-29T10:59:24;8.73;;;1.70;;
9007;SDS011;62813;51.424;6.762;2022-12-29T11:07:30;8.17;;;1.80;;
9007;SDS011;62813;51.424;6.762;2022-12-29T11:12:59;6.67;;;1.50;;
9007;SDS011;62813;51.424;6.762;2022-12-29T11:15:36;6.33;;;2.10;;
9007;SDS011;62813;51.424;6.762;2022-12-29T11:18:08;8.50;;;2.20;;
9007;SDS011;62813;51.424;6.762;2022-12-29T11:20:48;7.87;;;2.10;;
9007;SDS011;62813;51.424;6.762;2022-12-29T11:23:24;5.67;;;1.90;;
9007;SDS011;62813;51.424;6.762;2022-12-29T11:26:06;6.57;;;1.77;;
9007;SDS011;62813;51.424;6.762;2022-12-29T11:28:39;3.87;;;1.57;;
9007;SDS011;62813;51.424;6.762;2022-12-29T11:31:08;6.10;;;1.70;;
9007;SDS011;62813;51.424;6.762;2022-12-29T11:33:36;8.20;;;1.83;;
9007;SDS011;62813;51.424;6.762;2022-12-29T11:36:10;9.00;;;2.27;;
9007;SDS011;62813;51.424;6.762;2022-12-29T11:38:41;5.30;;;1.50;;
9007;SDS011;62813;51.424;6.762;2022-12-29T11:41:18;10.97;;;2.13;;
9007;SDS011;62813;51.424;6.762;2022-12-29T11:43:48;4.57;;;1.63;;
9007;SDS011;62813;51.424;6.762;2022-12-29T11:46:36;6.53;;;1.60;;
9007;SDS011;62813;51.424;6.762;2022-12-29T11:49:04;6.33;;;1.60;;
9007;SDS011;62813;51.424;6.762;2022-12-29T11:54:16;6.53;;;2.47;;
9007;SDS011;62813;51.424;6.762;2022-12-29T11:56:53;9.00;;;2.03;;
9007;SDS011;62813;51.424;6.762;2022-12-29T12:01:53;6.97;;;1.87;;
9007;SDS011;62813;51.424;6.762;2022-12-29T12:04:30;9.40;;;2.40;;
9007;SDS011;62813;51.424;6.762;2022-12-29T12:07:09;8.53;;;1.67;;
9007;SDS011;62813;51.424;6.762;2022-12-29T12:09:56;6.57;;;1.43;;
9007;SDS011;62813;51.424;6.762;2022-12-29T12:12:37;8.73;;;1.80;;
9007;SDS011;62813;51.424;6.762;2022-12-29T12:15:08;5.80;;;1.63;;
9007;SDS011;62813;51.424;6.762;2022-12-29T12:17:57;8.20;;;1.53;;
9007;SDS011;62813;51.424;6.762;2022-12-29T12:23:16;7.03;;;2.10;;
9007;SDS011;62813;51.424;6.762;2022-12-29T12:28:28;8.87;;;1.90;;
9007;SDS011;62813;51.424;6.762;2022-12-29T12:31:02;8.90;;;2.20;;
9007;SDS011;62813;51.424;6.762;2022-12-29T12:33:41;8.00;;;1.90;;
9007;SDS011;62813;51.424;6.762;2022-12-29T12:41:49;6.63;;;1.87;;
9007;SDS011;62813;51.424;6.762;2022-12-29T12:44:37;8.13;;;2.37;;
9007;SDS011;62813;51.424;6.762;2022-12-29T12:50:20;6.57;;;1.90;;
9007;SDS011;62813;51.424;6.762;2022-12-29T12:55:57;8.13;;;2.30;;
9007;SDS011;62813;51.424;6.762;2022-12-29T13:09:19;6.27;;;2.13;;
9007;SDS011;62813;51.424;6.762;2022-12-29T13:14:30;10.60;;;1.87;;
9007;SDS011;62813;51.424;6.762;2022-12-29T13:25:25;5.83;;;1.53;;
9007;SDS011;62813;51.424;6.762;2022-12-29T13:33:21;8.43;;;1.80;;
9007;SDS011;62813;51.424;6.762;2022-12-29T13:36:03;6.53;;;2.07;;
9007;SDS011;62813;51.424;6.762;2022-12-29T13:38:37;8.87;;;2.43;;
9007;SDS011;62813;51.424;6.762;2022-12-29T13:41:11;9.10;;;2.00;;
9007;SDS011;62813;51.424;6.762;2022-12-29T13:43:43;7.97;;;2.13;;
9007;SDS011;62813;51.424;6.762;2022-12-29T13:46:13;8.27;;;1.73;;
9007;SDS011;62813;51.424;6.762;2022-12-29T13:48:46;7.57;;;1.83;;
9007;SDS011;62813;51.424;6.762;2022-12-29T13:51:19;9.67;;;2.20;;
9007;SDS011;62813;51.424;6.762;2022-12-29T13:54:10;5.93;;;2.10;;
9007;SDS011;62813;51.424;6.762;2022-12-29T14:02:43;14.80;;;2.57;;
9007;SDS011;62813;51.424;6.762;2022-12-29T14:08:10;5.33;;;1.60;;
9007;SDS011;62813;51.424;6.762;2022-12-29T14:10:48;5.93;;;2.13;;
9007;SDS011;62813;51.424;6.762;2022-12-29T14:13:23;6.97;;;1.90;;
9007;SDS011;62813;51.424;6.762;2022-12-29T14:15:53;9.00;;;1.80;;
9007;SDS011;62813;51.424;6.762;2022-12-29T14:18:24;11.03;;;1.77;;
9007;SDS011;62813;51.424;6.762;2022-12-29T14:26:13;8.13;;;1.77;;
9007;SDS011;62813;51.424;6.762;2022-12-29T14:31:53;10.13;;;2.17;;
9007;SDS011;62813;51.424;6.762;2022-12-29T14:36:54;8.63;;;2.57;;
9007;SDS011;62813;51.424;6.762;2022-12-29T14:39:28;8.37;;;2.30;;
9007;SDS011;62813;51.424;6.762;2022-12-29T14:42:14;7.50;;;2.10;;
9007;SDS011;62813;51.424;6.762;2022-12-29T14:44:48;5.80;;;1.67;;
9007;SDS011;62813;51.424;6.762;2022-12-29T14:47:18;8.23;;;1.90;;
9007;SDS011;62813;51.424;6.762;2022-12-29T14:49:50;5.63;;;1.70;;
9007;SDS011;62813;51.424;6.762;2022-12-29T14:52:24;8.50;;;1.90;;
9007;SDS011;62813;51.424;6.762;2022-12-29T14:54:52;8.30;;;2.47;;
9007;SDS011;62813;51.424;6.762;2022-12-29T14:57:41;11.93;;;3.23;;
9007;SDS011;62813;51.424;6.762;2022-12-29T15:00:22;8.80;;;2.77;;
9007;SDS011;62813;51.424;6.762;2022-12-29T15:03:02;12.03;;;2.70;;
9007;SDS011;62813;51.424;6.762;2022-12-29T15:05:50;12.60;;;2.60;;
9007;SDS011;62813;51.424;6.762;2022-12-29T15:08:25;8.70;;;2.40;;
9007;SDS011;62813;51.424;6.762;2022-12-29T15:10:57;6.50;;;2.40;;
9007;SDS011;62813;51.424;6.762;2022-12-29T15:13:35;8.20;;;2.77;;
9007;SDS011;62813;51.424;6.762;2022-12-29T15:16:04;8.73;;;3.07;;
9007;SDS011;62813;51.424;6.762;2022-12-29T15:18:46;8.47;;;2.77;;
9007;SDS011;62813;51.424;6.762;2022-12-29T15:21:13;7.37;;;2.63;;
9007;SDS011;62813;51.424;6.762;2022-12-29T15:23:44;7.13;;;2.97;;
9007;SDS011;62813;51.424;6.762;2022-12-29T15:26:11;11.00;;;2.87;;
9007;SDS011;62813;51.424;6.762;2022-12-29T15:28:47;8.87;;;3.00;;
9007;SDS011;62813;51.424;6.762;2022-12-29T15:31:18;7.93;;;2.27;;
9007;SDS011;62813;51.424;6.762;2022-12-29T15:34:01;6.90;;;1.97;;
9007;SDS011;62813;51.424;6.762;2022-12-29T15:36:38;7.17;;;2.50;;
9007;SDS011;62813;51.424;6.762;2022-12-29T15:39:23;10.67;;;2.27;;
9007;SDS011;62813;51.424;6.762;2022-12-29T15:41:57;8.77;;;2.43;;
9007;SDS011;62813;51.424;6.762;2022-12-29T15:47:05;7.50;;;2.00;;
9007;SDS011;62813;51.424;6.762;2022-12-29T15:49:41;7.57;;;2.10;;
9007;SDS011;62813;51.424;6.762;2022-12-29T15:52:09;7.40;;;2.40;;
9007;SDS011;62813;51.424;6.762;2022-12-29T15:54:36;7.50;;;2.70;;
9007;SDS011;62813;51.424;6.762;2022-12-29T15:57:04;5.63;;;2.47;;
9007;SDS011;62813;51.424;6.762;2022-12-29T15:59:52;8.07;;;2.50;;
9007;SDS011;62813;51.424;6.762;2022-12-29T16:02:21;6.60;;;1.93;;
9007;SDS011;62813;51.424;6.762;2022-12-29T16:04:49;6.97;;;2.60;;
9007;SDS011;62813;51.424;6.762;2022-12-29T16:07:36;6.57;;;2.60;;
9007;SDS011;62813;51.424;6.762;2022-12-29T16:10:22;11.33;;;2.80;;
9007;SDS011;62813;51.424;6.762;2022-12-29T16:12:52;11.07;;;2.80;;
9007;SDS011;62813;51.424;6.762;2022-12-29T16:15:18;7.60;;;2.20;;
9007;SDS011;62813;51.424;6.762;2022-12-29T16:17:46;5.83;;;2.30;;
9007;SDS011;62813;51.424;6.762;2022-12-29T16:20:18;9.33;;;3.57;;
9007;SDS011;62813;51.424;6.762;2022-12-29T16:22:48;8.23;;;3.20;;
9007;SDS011;62813;51.424;6.762;2022-12-29T16:27:55;8.37;;;3.40;;
9007;SDS011;62813;51.424;6.762;2022-12-29T16:30:26;8.27;;;3.57;;
9007;SDS011;62813;51.424;6.762;2022-12-29T16:33:00;12.63;;;4.17;;
9007;SDS011;62813;51.424;6.762;2022-12-29T16:35:28;12.37;;;4.23;;
9007;SDS011;62813;51.424;6.762;2022-12-29T16:38:13;10.40;;;4.23;;
9007;SDS011;62813;51.424;6.762;2022-12-29T16:48:33;7.07;;;3.60;;
9007;SDS011;62813;51.424;6.762;2022-12-29T16:51:06;10.13;;;3.33;;
9007;SDS011;62813;51.424;6.762;2022-12-29T16:53:40;17.57;;;6.70;;
9007;SDS011;62813;51.424;6.762;2022-12-29T16:56:14;9.73;;;3.47;;
9007;SDS011;62813;51.424;6.762;2022-12-29T16:58:50;5.67;;;1.50;;
9007;SDS011;62813;51.424;6.762;2022-12-29T17:01:40;2.37;;;0.87;;
9007;SDS011;62813;51.424;6.762;2022-12-29T17:04:08;1.17;;;0.70;;
9007;SDS011;62813;51.424;6.762;2022-12-29T17:06:36;3.20;;;0.90;;
9007;SDS011;62813;51.424;6.762;2022-12-29T17:09:15;3.13;;;0.87;;
9007;SDS011;62813;51.424;6.762;2022-12-29T17:11:56;2.83;;;0.80;;
9007;SDS011;62813;51.424;6.762;2022-12-29T17:14:36;3.20;;;0.87;;
9007;SDS011;62813;51.424;6.762;2022-12-29T17:17:10;2.07;;;0.70;;
9007;SDS011;62813;51.424;6.762;2022-12-29T17:19:39;1.80;;;0.70;;
9007;SDS011;62813;51.424;6.762;2022-12-29T17:22:24;3.13;;;1.20;;
9007;SDS011;62813;51.424;6.762;2022-12-29T17:24:53;2.20;;;1.07;;
9007;SDS011;62813;51.424;6.762;2022-12-29T17:27:22;1.63;;;0.90;;
9007;SDS011;62813;51.424;6.762;2022-12-29T17:29:52;3.17;;;1.00;;
9007;SDS011;62813;51.424;6.762;2022-12-29T17:32:22;3.33;;;1.50;;
9007;SDS011;62813;51.424;6.762;2022-12-29T17:34:49;3.40;;;1.60;;
9007;SDS011;62813;51.424;6.762;2022-12-29T17:37:29;4.00;;;1.27;;
9007;SDS011;62813;51.424;6.762;2022-12-29T17:39:58;3.60;;;1.30;;
9007;SDS011;62813;51.424;6.762;2022-12-29T17:42:25;3.20;;;1.03;;
9007;SDS011;62813;51.424;6.762;2022-12-29T17:44:52;3.87;;;1.37;;
9007;SDS011;62813;51.424;6.762;2022-12-29T17:47:18;5.77;;;3.10;;
9007;SDS011;62813;51.424;6.762;2022-12-29T17:49:45;6.07;;;2.20;;
9007;SDS011;62813;51.424;6.762;2022-12-29T17:52:12;4.83;;;2.77;;
9007;SDS011;62813;51.424;6.762;2022-12-29T17:54:41;7.67;;;2.63;;
9007;SDS011;62813;51.424;6.762;2022-12-29T17:57:18;5.67;;;3.37;;
9007;SDS011;62813;51.424;6.762;2022-12-29T17:59:46;8.47;;;4.27;;